Terminal Aerodrome Forecast
Issued by NWS Tulsa, OK

Home | Current Version | Previous Version | Text Only | Print | Product List | Glossary On
Versions: 1 2 3 4 5 6 7 8 9 10 11 12
000
FTUS44 KTSA 041120
TAFFSM
TAF
KFSM 041120Z 0412/0512 VRB04KT P6SM SCT090 BKN200
     FM042100 27006KT P6SM OVC250
     FM050000 07006KT P6SM OVC250 PROB30 0506/0512 3SM -TSRA
      BKN050CB=

USA.gov is the U.S. government's official web portal to all federal, state and local government web resources and services.